Chloride, Arizona
Current Conditions -  °F | °C
As of 12:51 PM on Friday 28 Nov 2014 (Local Time) from KIGM Reporting Station
Clear Clear  
Wind Chill: 73°   Ceiling: Unl
Heat Index: 73°   Visibility: NA
Dew Point: 16°   Wind: 14mph
Humidity: 11%   Direction: 240°WSW
Pressure: 30.06"   Gusts: NA
Location:  35.41°N, 114.2°W
Report Text: KIGM 281951Z AUTO 24012KT CLR 23/M09 A3006 RMK AO2 SLP135 T02281089 $
Loading
Personal Weather Stations






























Interactive Weather Map New forecast layout! Learn more

10-Day Weather Forecast

Advertisements
Track Severe Weather on mobile